Mansfield, WA (98830)

10:50 PM PDT on August 21, 2014 (GMT -0700)
The Highlands | Change Station
CLOSE
Current Station
Personal Weather Station
Location: Chelan, WA
Elevation: 1610 ft
Nearby Weather Stations

Elev 1610 ft 47.86 °N, 120.04 °W | Updated 2 minutes ago

Mostly Cloudy
Mostly Cloudy
65.9 °F
Feels Like 65.9 °F
N
5.0
Wind Variable Wind from East
Gusts 9.0 mph

Today
High -- | Low -- °F
--% Chance of Precip.
Yesterday
High -- | Low -- °F
Precip. -- in
6:02 AM 8:00 PM
Waning Crescent, 10% visible
Pressure 29.87 in
Visibility 10.0 miles
Clouds Mostly Cloudy 8500 ft
Dew Point 53 °F
Humidity 63%
Rainfall 0.00 in
Snow Depth Not available.
UV 0 out of 12
Pollen 4.00 out of 12
Air Quality Not available.
Flu Activity Not available.
METAR KEPH 220453Z AUTO 36018KT 10SM BKN085 21/10 A2988 RMK AO2 LTG DSNT NW SLP113 T02060100

More Conditions Fewer Conditions

Pressure 29.87 in
Visibility 10.0 miles
Clouds Mostly Cloudy 8500 ft
Dew Point 53 °F
Humidity 63%
Rainfall 0.00 in
Snow Depth Not available.
UV 0 out of 12
Pollen 4.00 out of 12
Air Quality Not available.
Flu Activity Not available.
METAR KEPH 220453Z AUTO 36018KT 10SM BKN085 21/10 A2988 RMK AO2 LTG DSNT NW SLP113 T02060100

More Conditions Fewer Conditions

10-Day Weather Forecast

Almanac

Astronomy

Aug. 21, 2014 Rise Set
Actual Time 6:02 AM PDT 8:00 PM PDT
Civil Twilight 5:28 AM PDT 8:33 PM PDT
Nautical Twilight 4:47 AM PDT 9:14 PM PDT
Astronomical Twilight 4:02 AM PDT 9:59 PM PDT
Moon 2:29 AM PDT (8/21) 5:38 PM PDT (8/21)
Length of Visible Light 15h 04m
Length of Day
13h 58m
Tomorrow will be 3m 13s shorter.
Waning Crescent, 10% of the Moon is Illuminated
Aug 22
Waning Crescent
Aug 25
New
Sep 2
First Quarter
Sep 8
Full
Sep 15
Last Quarter

Yesterday's Extremes

State Highs State Lows

Community

WunderPhotos

Upload Photos

1,746,131 photos uploaded!

Nearby

Snow Depth

Station Depth Elevation
Moses Mountain 1 in 5300 ft
Upper Wheeler 0 in 4400 ft
Trough 0 in 5300 ft
Grouse Camp 0 in 5380 ft
Lyman Lake 0 in 5900 ft

Earthquake Activity

City Distance Mag. Time & Date
No recent earthquake activity has been reported nearby.
Minimum magnitude displayed is 2.5.

Coastal Water Temperatures

Place Temperature
No Stations Reporting

Nearby Weather Stations